Time;durP1;ratioP1;P1;durP2;ratioP2;P2;SDS_P1;SDS_P2;PMS_P1;PMS_P2;Temp;Humidity;BMP_temperature;BMP_pressure;BME280_temperature;BME280_humidity;BME280_pressure;Samples;Min_cycle;Max_cycle;Signal;HPM_P1;HPM_P2
2023/03/20 00:00:27;;;;;;;10.13;5.13;;;;;;;0.69;61.81;99967.56;5085590;28;20050;-42
2023/03/20 00:02:54;;;;;;;9.73;4.97;;;;;;;0.47;61.52;99929.00;5072239;28;20054;-38
2023/03/20 00:05:23;;;;;;;11.30;5.35;;;;;;;0.64;61.55;99964.13;5067423;28;20037;-36
2023/03/20 00:07:49;;;;;;;13.53;5.47;;;;;;;0.43;61.84;99931.50;5067184;28;20032;-39
2023/03/20 00:10:17;;;;;;;11.13;4.90;;;;;;;0.64;61.73;99958.13;5068066;28;20040;-39
2023/03/20 00:12:44;;;;;;;12.05;5.13;;;;;;;0.62;61.68;99958.16;5065966;28;20036;-44
2023/03/20 00:15:21;;;;;;;10.55;4.90;;;;;;;0.64;61.44;99964.13;5077018;28;20044;-37
2023/03/20 00:17:46;;;;;;;12.50;4.63;;;;;;;0.63;61.91;99967.50;5085137;28;20036;-38
2023/03/20 00:20:16;;;;;;;8.15;4.22;;;;;;;0.62;61.77;99964.97;5088234;28;20042;-39
2023/03/20 00:22:42;;;;;;;8.90;4.50;;;;;;;0.37;62.10;99922.91;5072308;28;20035;-39
2023/03/20 00:25:14;;;;;;;10.45;4.32;;;;;;;0.60;61.95;99959.81;5082288;28;20044;-36
2023/03/20 00:27:40;;;;;;;11.68;4.25;;;;;;;0.58;61.95;99964.06;5084161;28;20146;-37
2023/03/20 00:30:30;;;;;;;9.55;4.43;;;;;;;0.37;61.88;99934.00;5086225;28;20602;-38
2023/03/20 00:32:57;;;;;;;10.13;5.07;;;;;;;0.29;62.20;99920.28;5070734;28;20040;-40
2023/03/20 00:35:28;;;;;;;9.88;4.20;;;;;;;0.48;62.25;99948.59;5067465;28;20040;-37
2023/03/20 00:37:56;;;;;;;10.15;4.65;;;;;;;0.46;62.60;99958.84;5057511;28;20485;-37
2023/03/20 00:40:28;;;;;;;10.57;4.65;;;;;;;0.48;63.01;99951.16;5080513;28;20456;-38
2023/03/20 00:43:03;;;;;;;15.18;5.18;;;;;;;0.50;62.81;99942.66;5067410;28;20219;-39
2023/03/20 00:45:31;;;;;;;9.65;4.68;;;;;;;0.49;62.94;99938.38;5085292;28;20039;-36
2023/03/20 00:47:57;;;;;;;11.40;6.05;;;;;;;0.47;63.06;99934.97;5085948;28;20426;-36
2023/03/20 00:50:31;;;;;;;12.85;5.18;;;;;;;0.50;63.02;99947.78;5069844;28;20518;-39
2023/03/20 00:52:58;;;;;;;10.35;5.00;;;;;;;0.33;62.64;99914.34;5053218;28;20076;-37
2023/03/20 00:55:27;;;;;;;9.88;4.45;;;;;;;0.54;62.62;99946.97;5099236;28;20047;-40
2023/03/20 00:57:58;;;;;;;15.45;5.30;;;;;;;0.55;62.84;99942.72;5084197;28;20569;-38
2023/03/20 01:00:36;;;;;;;9.48;4.43;;;;;;;0.56;62.95;99937.63;5067618;28;20101;-39
2023/03/20 01:03:19;;;;;;;15.70;6.93;;;;;;;0.56;62.56;99935.06;5066414;28;20097;-38
2023/03/20 01:05:48;;;;;;;9.82;4.75;;;;;;;0.56;62.63;99939.31;5067023;28;20090;-40
2023/03/20 01:08:23;;;;;;;15.88;6.25;;;;;;;0.57;62.87;99935.91;5055363;28;20546;-43
2023/03/20 01:10:54;;;;;;;13.80;5.40;;;;;;;0.59;62.89;99942.75;5089523;28;20047;-41
2023/03/20 01:13:27;;;;;;;14.55;6.18;;;;;;;0.55;63.16;99935.91;5073855;28;20635;-42
2023/03/20 01:15:55;;;;;;;7.28;3.58;;;;;;;0.54;62.89;99939.28;5073256;28;20392;-35
2023/03/20 01:18:22;;;;;;;7.93;4.50;;;;;;;0.52;63.23;99940.13;5088384;28;20138;-43
2023/03/20 01:20:48;;;;;;;14.23;5.80;;;;;;;0.51;62.98;99936.72;5090341;28;20047;-41
2023/03/20 01:23:14;;;;;;;12.30;4.78;;;;;;;0.53;63.25;99936.72;5058146;28;20036;-39
2023/03/20 01:25:41;;;;;;;16.92;5.82;;;;;;;0.29;62.78;99893.88;5089190;28;20076;-37
2023/03/20 01:28:17;;;;;;;13.38;6.20;;;;;;;0.31;63.02;99903.28;5087710;28;20036;-39
2023/03/20 01:30:43;;;;;;;13.52;5.75;;;;;;;0.48;63.31;99929.00;5072933;28;20058;-37
2023/03/20 01:33:17;;;;;;;9.75;4.22;;;;;;;0.15;63.47;99872.41;5074777;28;20039;-39
2023/03/20 01:35:47;;;;;;;12.80;4.97;;;;;;;0.47;63.27;99924.75;5053060;28;20135;-39
2023/03/20 01:38:15;;;;;;;14.02;5.75;;;;;;;0.47;63.22;99924.75;5058547;28;20042;-36
2023/03/20 01:40:43;;;;;;;11.48;5.22;;;;;;;0.42;63.33;99918.69;5052490;28;20044;-41
2023/03/20 01:43:15;;;;;;;11.90;4.95;;;;;;;0.32;62.98;99917.75;5083284;28;20532;-38
2023/03/20 01:46:05;;;;;;;16.67;5.35;;;;;;;0.19;62.89;99898.03;5089419;28;20036;-39
2023/03/20 01:48:52;;;;;;;13.15;5.10;;;;;;;0.30;63.17;99916.91;5071481;28;20040;-40
2023/03/20 01:51:24;;;;;;;10.88;4.47;;;;;;;0.28;63.21;99918.56;5088976;28;20454;-42
2023/03/20 01:54:07;;;;;;;12.27;4.57;;;;;;;0.27;63.23;99913.44;5086042;28;20040;-39
2023/03/20 01:56:46;;;;;;;14.93;4.82;;;;;;;0.07;63.08;99886.78;5085854;28;20044;-39
2023/03/20 01:59:18;;;;;;;13.63;5.03;;;;;;;0.21;63.08;99904.00;5087360;28;20534;-39
2023/03/20 02:01:44;;;;;;;12.52;4.78;;;;;;;0.18;63.19;99901.41;5070987;28;20044;-39
2023/03/20 02:04:13;;;;;;;9.00;4.25;;;;;;;0.17;62.90;99901.38;5085845;28;20040;-37
2023/03/20 02:06:49;;;;;;;9.25;4.28;;;;;;;0.14;63.18;99894.56;5073528;28;20570;-42
2023/03/20 02:09:19;;;;;;;13.88;4.95;;;;;;;0.15;63.02;99897.97;5082490;28;20135;-40
2023/03/20 02:11:46;;;;;;;10.85;5.28;;;;;;;0.18;63.00;99903.13;5100897;28;20542;-37
2023/03/20 02:14:14;;;;;;;11.15;4.20;;;;;;;0.20;62.53;99892.06;5085612;28;20036;-39
2023/03/20 02:17:04;;;;;;;10.35;5.22;;;;;;;0.17;62.86;99897.13;5072648;28;20541;-40
2023/03/20 02:19:52;;;;;;;10.50;5.05;;;;;;;0.17;62.73;99896.28;5073015;28;20040;-38
2023/03/20 02:22:57;;;;;;;11.52;5.13;;;;;;;0.17;62.92;99894.59;5064803;28;20480;-41
2023/03/20 02:26:01;;;;;;;9.73;5.05;;;;;;;0.16;63.02;99882.63;5068676;28;20040;-35
2023/03/20 02:28:51;;;;;;;13.90;4.63;;;;;;;0.15;63.29;99895.44;5077661;28;20034;-38
2023/03/20 02:31:34;;;;;;;8.98;4.38;;;;;;;0.13;63.38;99881.75;5085172;28;20044;-38
2023/03/20 02:34:01;;;;;;;13.02;4.70;;;;;;;0.17;63.07;99889.47;5081970;28;20046;-38
2023/03/20 02:36:51;;;;;;;13.77;4.82;;;;;;;0.18;63.03;99880.97;5087907;28;20066;-38
2023/03/20 02:39:41;;;;;;;11.60;5.03;;;;;;;0.09;62.63;99850.22;5068126;28;20040;-41
2023/03/20 02:42:25;;;;;;;10.98;4.40;;;;;;;0.27;61.90;99875.94;5084513;28;20048;-40
2023/03/20 02:45:03;;;;;;;12.50;4.13;;;;;;;0.10;61.87;99849.38;5084962;28;20047;-36
2023/03/20 02:47:49;;;;;;;10.27;4.15;;;;;;;0.27;61.56;99872.53;5052013;28;20471;-36
2023/03/20 02:50:38;;;;;;;15.70;6.70;;;;;;;0.30;61.68;99875.13;5067763;28;20040;-35
2023/03/20 02:53:46;;;;;;;13.05;4.53;;;;;;;0.32;60.83;99874.28;5060242;28;20064;-36
2023/03/20 02:56:36;;;;;;;15.90;5.43;;;;;;;0.36;60.27;99870.06;5062522;28;20056;-39
2023/03/20 02:59:18;;;;;;;13.98;4.57;;;;;;;0.38;60.09;99864.13;5067830;28;20036;-43
2023/03/20 03:01:54;;;;;;;11.02;3.88;;;;;;;0.26;59.81;99837.59;5103099;28;20058;-38
2023/03/20 03:04:25;;;;;;;10.88;4.47;;;;;;;0.45;59.68;99864.19;5070941;28;20083;-37
2023/03/20 03:06:54;;;;;;;11.55;4.00;;;;;;;0.49;59.49;99858.25;5084861;28;20538;-41
2023/03/20 03:09:29;;;;;;;10.32;4.43;;;;;;;0.52;59.02;99858.28;5062650;28;20397;-40
2023/03/20 03:12:00;;;;;;;16.80;6.65;;;;;;;0.56;58.96;99860.00;5071336;28;20040;-38
2023/03/20 03:14:36;;;;;;;9.30;3.83;;;;;;;0.58;58.46;99864.28;5070435;28;20109;-40
2023/03/20 03:17:04;;;;;;;10.70;4.28;;;;;;;0.58;58.60;99858.31;5086422;28;20177;-40
2023/03/20 03:19:31;;;;;;;14.77;5.53;;;;;;;0.61;58.27;99861.78;5054488;28;20469;-39
2023/03/20 03:21:57;;;;;;;7.45;3.75;;;;;;;0.68;57.94;99860.13;5087907;28;20032;-40
2023/03/20 03:24:32;;;;;;;12.48;4.90;;;;;;;0.68;57.69;99853.28;5083974;28;20043;-41
2023/03/20 03:27:06;;;;;;;12.70;3.85;;;;;;;0.62;57.53;99842.16;5070485;28;20043;-37
2023/03/20 03:29:35;;;;;;;8.30;3.97;;;;;;;0.73;56.97;99846.50;5051876;28;20071;-41
2023/03/20 03:32:03;;;;;;;7.77;3.40;;;;;;;0.80;56.84;99849.97;5070338;28;20118;-37
2023/03/20 03:34:30;;;;;;;22.10;4.85;;;;;;;0.82;56.20;99838.06;5056497;28;20098;-43
2023/03/20 03:37:06;;;;;;;11.05;4.32;;;;;;;0.80;55.74;99838.03;5070084;28;20515;-37
2023/03/20 03:39:38;;;;;;;8.15;3.58;;;;;;;0.78;55.68;99846.56;5050600;28;20041;-37
2023/03/20 03:42:05;;;;;;;10.65;4.70;;;;;;;0.78;55.61;99844.88;5068618;28;20052;-41
2023/03/20 03:44:55;;;;;;;15.90;5.20;;;;;;;0.83;55.42;99835.50;5078423;28;20082;-39
2023/03/20 03:47:33;;;;;;;8.00;3.53;;;;;;;0.84;55.59;99838.91;5053084;28;20040;-40
2023/03/20 03:50:04;;;;;;;8.38;3.63;;;;;;;0.83;55.42;99835.50;5086749;28;20507;-38
2023/03/20 03:52:31;;;;;;;7.53;3.20;;;;;;;0.85;55.79;99835.50;5087003;28;20032;-39
2023/03/20 03:55:07;;;;;;;8.02;3.40;;;;;;;0.83;55.04;99832.09;5072402;28;20046;-37
2023/03/20 03:57:40;;;;;;;9.80;3.53;;;;;;;0.81;54.70;99826.09;5067316;28;20131;-37
2023/03/20 04:00:10;;;;;;;14.10;5.32;;;;;;;0.83;54.97;99827.84;5043637;28;20044;-41
2023/03/20 04:02:42;;;;;;;6.28;3.35;;;;;;;0.89;55.09;99829.56;5086530;28;20079;-39
2023/03/20 04:05:08;;;;;;;13.43;4.78;;;;;;;0.90;54.89;99831.28;5071632;28;20044;-42
2023/03/20 04:07:35;;;;;;;11.13;3.78;;;;;;;0.91;54.76;99834.69;5050133;28;20139;-40
2023/03/20 04:10:04;;;;;;;11.35;3.92;;;;;;;0.88;54.56;99825.31;5085345;28;20066;-38
2023/03/20 04:12:36;;;;;;;8.38;3.38;;;;;;;0.93;54.38;99833.88;5085341;28;20060;-38
2023/03/20 04:15:05;;;;;;;13.25;3.58;;;;;;;0.94;54.51;99827.91;5072097;28;20048;-45
2023/03/20 04:17:33;;;;;;;9.15;3.38;;;;;;;0.93;53.71;99827.88;5075800;28;20040;-45
2023/03/20 04:19:59;;;;;;;9.35;3.15;;;;;;;0.95;53.52;99832.16;5102422;28;20096;-38
2023/03/20 04:22:26;;;;;;;11.25;3.17;;;;;;;1.00;53.13;99821.94;5087128;28;20028;-44
2023/03/20 04:24:52;;;;;;;5.95;2.83;;;;;;;1.05;53.14;99812.59;5057614;28;20509;-41
2023/03/20 04:27:19;;;;;;;5.53;2.70;;;;;;;1.18;52.65;99822.06;5085489;28;20040;-44
2023/03/20 04:29:46;;;;;;;10.05;3.38;;;;;;;0.92;52.76;99757.06;5085154;28;20094;-41
2023/03/20 04:32:26;;;;;;;14.80;5.38;;;;;;;1.30;52.03;99808.47;5070645;28;20048;-42
2023/03/20 04:35:16;;;;;;;19.20;5.97;;;;;;;1.37;51.60;99813.63;5067838;28;20427;-43
2023/03/20 04:37:48;;;;;;;10.00;3.40;;;;;;;1.40;50.88;99811.09;5086675;28;20039;-41
2023/03/20 04:40:15;;;;;;;6.40;3.38;;;;;;;1.33;50.38;99788.84;5087183;28;20039;-44
2023/03/20 04:42:42;;;;;;;8.05;2.78;;;;;;;1.62;50.38;99806.91;5089400;28;20082;-46
2023/03/20 04:45:09;;;;;;;8.40;3.30;;;;;;;1.55;49.76;99779.53;5083494;28;20071;-43
2023/03/20 04:47:37;;;;;;;7.68;2.95;;;;;;;1.77;49.64;99799.25;5105420;28;20040;-39
2023/03/20 04:50:05;;;;;;;6.13;2.85;;;;;;;1.48;48.71;99747.91;5089214;28;20047;-40
2023/03/20 04:52:31;;;;;;;6.35;2.92;;;;;;;2.01;48.53;99806.16;5107205;28;20048;-43
2023/03/20 04:54:57;;;;;;;6.65;2.70;;;;;;;2.06;47.79;99815.56;5090345;28;20048;-45
2023/03/20 04:57:23;;;;;;;5.93;2.88;;;;;;;2.06;47.67;99810.44;5055838;28;20169;-37
2023/03/20 04:59:50;;;;;;;6.47;2.50;;;;;;;2.07;47.31;99818.97;5090328;28;20062;-43
2023/03/20 05:02:17;;;;;;;8.38;2.90;;;;;;;2.02;46.60;99815.56;5078335;28;20112;-41
2023/03/20 05:04:43;;;;;;;5.57;2.90;;;;;;;1.75;46.36;99756.53;5069557;28;20040;-43
2023/03/20 05:07:10;;;;;;;7.57;2.83;;;;;;;2.07;46.23;99819.84;5072294;28;20135;-46
2023/03/20 05:09:56;;;;;;;7.57;2.65;;;;;;;2.05;45.93;99803.59;5084837;28;20133;-47
2023/03/20 05:12:26;;;;;;;6.13;2.70;;;;;;;2.23;45.82;99832.69;5089638;28;20048;-45
2023/03/20 05:14:57;;;;;;;6.43;2.53;;;;;;;2.17;45.19;99830.97;5085671;28;20162;-40
2023/03/20 05:17:59;;;;;;;3.75;2.25;;;;;;;2.24;45.14;99825.00;5084374;28;20036;-37
2023/03/20 05:20:37;;;;;;;5.60;1.88;;;;;;;2.34;44.49;99828.44;5055434;28;20123;-37
2023/03/20 05:23:29;;;;;;;5.55;2.10;;;;;;;2.24;44.14;99819.88;5069155;28;20135;-36
2023/03/20 05:26:22;;;;;;;6.63;1.80;;;;;;;2.27;43.64;99821.56;5069350;28;20048;-37
2023/03/20 05:29:06;;;;;;;7.82;3.25;;;;;;;2.33;43.63;99795.94;5070659;28;20404;-38
2023/03/20 05:31:50;;;;;;;4.53;2.28;;;;;;;2.64;43.09;99820.72;5088704;28;20047;-41
2023/03/20 05:34:36;;;;;;;5.30;2.10;;;;;;;2.79;42.70;99820.72;5085598;28;20044;-38
2023/03/20 05:37:19;;;;;;;7.95;2.10;;;;;;;2.89;41.92;99822.41;5050817;28;20059;-37
2023/03/20 05:39:56;;;;;;;4.07;2.05;;;;;;;3.18;41.45;99829.22;5070692;28;20117;-38
2023/03/20 05:42:34;;;;;;;6.80;2.17;;;;;;;3.52;41.17;99811.97;5082657;28;20480;-37
2023/03/20 05:45:16;;;;;;;9.40;2.45;;;;;;;3.93;41.21;99806.63;5074973;28;20306;-36
2023/03/20 05:47:56;;;;;;;6.30;1.90;;;;;;;4.52;40.49;99814.81;5084120;28;20166;-39
2023/03/20 05:50:45;;;;;;;3.97;1.67;;;;;;;4.84;39.72;99824.00;5078373;28;20122;-37
2023/03/20 05:53:15;;;;;;;11.30;2.03;;;;;;;4.31;38.95;99789.25;5067559;28;20040;-36
2023/03/20 05:55:44;;;;;;;8.07;2.60;;;;;;;4.25;38.53;99789.28;5077702;28;20100;-38
2023/03/20 05:58:49;;;;;;;3.50;1.90;;;;;;;4.59;38.35;99826.78;5087622;28;20047;-38
2023/03/20 06:01:36;;;;;;;8.52;2.60;;;;;;;4.48;37.66;99800.25;5071178;28;20097;-37
2023/03/20 06:04:20;;;;;;;3.63;1.98;;;;;;;4.72;37.62;99830.09;5068789;28;20040;-46
2023/03/20 06:07:03;;;;;;;5.45;2.22;;;;;;;4.88;37.48;99829.09;5079295;28;20131;-37
2023/03/20 06:09:30;;;;;;;5.28;2.03;;;;;;;4.87;37.39;99832.53;5043885;28;20762;-38
2023/03/20 06:11:57;;;;;;;6.13;2.40;;;;;;;4.72;37.26;99831.81;5053771;28;20047;-38
2023/03/20 06:14:23;;;;;;;6.00;2.65;;;;;;;5.13;36.33;99822.84;5090168;28;20528;-38
2023/03/20 06:16:56;;;;;;;5.13;2.60;;;;;;;5.60;36.33;99825.78;5084847;28;20657;-39
2023/03/20 06:19:23;;;;;;;9.57;2.67;;;;;;;5.44;35.99;99769.22;5085408;28;20088;-37
2023/03/20 06:21:50;;;;;;;5.80;3.03;;;;;;;5.91;35.31;99793.59;5052434;28;20066;-37
2023/03/20 06:24:19;;;;;;;7.85;3.28;;;;;;;7.10;34.56;99821.81;5079481;28;21717;-38
2023/03/20 06:26:45;;;;;;;12.20;3.20;;;;;;;8.25;33.56;99777.13;5061323;28;20048;-38
2023/03/20 06:29:12;;;;;;;6.35;2.90;;;;;;;9.66;32.24;99819.28;5066695;28;20084;-36
2023/03/20 06:31:38;;;;;;;6.57;3.13;;;;;;;10.28;31.90;99812.25;5079714;28;20123;-36
2023/03/20 06:34:08;;;;;;;8.35;3.10;;;;;;;10.60;31.69;99817.28;5080096;28;20138;-37
2023/03/20 06:36:40;;;;;;;8.73;2.97;;;;;;;10.34;31.19;99817.25;5060505;28;20040;-37
2023/03/20 06:39:13;;;;;;;7.45;2.78;;;;;;;9.55;30.13;99808.34;5094087;28;20499;-37
2023/03/20 06:41:39;;;;;;;7.13;3.35;;;;;;;9.16;30.02;99805.13;5081655;28;20085;-38
2023/03/20 06:44:09;;;;;;;7.33;2.60;;;;;;;8.80;30.67;99807.75;5080198;28;20043;-37
2023/03/20 06:47:04;;;;;;;10.63;3.17;;;;;;;8.87;30.95;99811.03;5042375;28;20048;-37
2023/03/20 06:49:30;;;;;;;4.57;2.95;;;;;;;8.89;30.90;99806.69;5081357;28;20047;-37
2023/03/20 06:51:58;;;;;;;12.57;3.15;;;;;;;9.01;30.97;99808.94;5082799;28;20028;-37
2023/03/20 06:54:25;;;;;;;8.25;3.30;;;;;;;8.78;30.97;99780.19;5092799;28;20044;-38
2023/03/20 06:56:52;;;;;;;9.38;2.92;;;;;;;8.87;31.19;99785.13;5068355;28;20047;-36
2023/03/20 06:59:20;;;;;;;9.85;3.30;;;;;;;9.29;30.50;99807.34;5062827;28;20439;-37
2023/03/20 07:01:46;;;;;;;4.93;2.60;;;;;;;9.79;30.52;99799.84;5079439;28;20043;-37
2023/03/20 07:04:13;;;;;;;8.23;3.45;;;;;;;9.99;30.42;99796.69;5063520;28;20036;-37
2023/03/20 07:06:47;;;;;;;7.72;3.35;;;;;;;9.99;29.87;99801.88;5053400;28;20051;-37
2023/03/20 07:09:16;;;;;;;7.30;3.67;;;;;;;10.17;30.23;99801.34;5077016;28;20044;-37
2023/03/20 07:11:43;;;;;;;11.18;4.03;;;;;;;10.20;30.27;99796.88;5082358;28;20050;-37
2023/03/20 07:14:10;;;;;;;11.32;3.55;;;;;;;10.05;30.17;99788.69;5079659;28;20070;-37
2023/03/20 07:16:46;;;;;;;8.60;3.53;;;;;;;9.98;30.41;99784.59;5073984;28;20142;-36
2023/03/20 07:19:12;;;;;;;7.55;3.15;;;;;;;9.94;30.35;99786.44;5076046;28;20793;-36
2023/03/20 07:21:41;;;;;;;8.07;3.55;;;;;;;9.49;29.92;99752.28;5075068;28;20123;-37
2023/03/20 07:24:08;;;;;;;11.82;3.70;;;;;;;10.01;30.00;99781.88;5068135;28;20040;-36
2023/03/20 07:26:34;;;;;;;7.55;4.00;;;;;;;10.71;28.73;99777.94;5078595;28;20193;-36
2023/03/20 07:29:01;;;;;;;11.38;3.65;;;;;;;11.63;27.75;99775.53;5081029;28;20040;-37
2023/03/20 07:31:28;;;;;;;9.60;4.47;;;;;;;11.87;27.81;99772.06;5081981;28;20464;-37
2023/03/20 07:34:11;;;;;;;7.43;3.95;;;;;;;12.89;27.07;99768.75;5080976;28;20044;-36
2023/03/20 07:36:40;;;;;;;14.10;4.88;;;;;;;13.63;26.71;99779.47;5083249;28;20158;-38
2023/03/20 07:39:08;;;;;;;13.77;4.50;;;;;;;13.92;25.70;99774.59;5079795;28;20048;-36
2023/03/20 07:41:36;;;;;;;12.15;4.15;;;;;;;14.51;25.46;99773.56;5058992;28;20098;-35
2023/03/20 07:44:07;;;;;;;;;;;;;;;14.65;25.14;99771.13;5093092;28;20126;-35
2023/03/20 07:46:33;;;;;;;13.27;4.75;;;;;;;15.54;24.66;99767.44;5078960;28;19931;-38
2023/03/20 07:49:00;;;;;;;9.43;4.90;;;;;;;16.47;23.63;99744.75;5058395;28;20051;-35
2023/03/20 07:51:26;;;;;;;12.82;4.65;;;;;;;16.87;22.90;99761.66;5080503;28;20514;-35
2023/03/20 07:53:52;;;;;;;16.50;5.35;;;;;;;17.23;22.49;99756.84;5083413;28;20051;-36
2023/03/20 07:56:20;;;;;;;7.65;4.22;;;;;;;18.35;21.88;99769.13;5071596;28;20044;-36
2023/03/20 07:58:46;;;;;;;15.45;5.18;;;;;;;18.42;21.10;99760.72;5064015;28;20094;-36
2023/03/20 08:01:11;;;;;;;12.65;4.80;;;;;;;19.00;20.53;99735.81;5063785;28;20078;-37
2023/03/20 08:03:38;;;;;;;16.45;5.32;;;;;;;19.55;20.02;99759.25;5073494;28;20122;-37
2023/03/20 08:06:06;;;;;;;14.85;5.20;;;;;;;19.44;19.17;99719.56;5085319;28;20052;-37
2023/03/20 08:08:32;;;;;;;13.45;4.97;;;;;;;20.30;18.92;99729.16;5100838;28;20530;-36
2023/03/20 08:10:58;;;;;;;14.75;4.57;;;;;;;21.12;18.10;99754.69;5085225;28;20055;-37
2023/03/20 08:13:24;;;;;;;13.73;4.22;;;;;;;20.84;17.66;99754.22;5072452;28;20032;-44
2023/03/20 08:15:50;;;;;;;13.20;4.45;;;;;;;20.71;17.34;99751.69;5067595;28;20757;-36
2023/03/20 08:18:16;;;;;;;14.23;4.50;;;;;;;21.45;16.80;99758.34;5083884;28;20064;-36
2023/03/20 08:20:43;;;;;;;7.40;3.83;;;;;;;21.45;16.42;99747.78;5068963;28;20120;-35
2023/03/20 08:23:08;;;;;;;13.50;3.83;;;;;;;22.64;16.05;99749.59;5070761;28;20504;-35
2023/03/20 08:25:34;;;;;;;11.02;4.65;;;;;;;22.85;15.71;99747.84;5068445;28;20040;-37
2023/03/20 08:28:00;;;;;;;12.43;4.40;;;;;;;22.73;15.35;99752.34;5067461;28;20059;-34
2023/03/20 08:30:27;;;;;;;14.43;4.10;;;;;;;22.12;15.33;99719.44;5056721;28;20048;-36
2023/03/20 08:32:53;;;;;;;10.57;4.75;;;;;;;22.18;15.48;99741.94;5070998;28;20046;-35
2023/03/20 08:35:19;;;;;;;15.45;4.38;;;;;;;22.26;15.63;99736.84;5073481;28;20677;-35
2023/03/20 08:37:44;;;;;;;12.82;4.78;;;;;;;22.19;15.30;99712.66;5076510;28;20090;-33
2023/03/20 08:40:11;;;;;;;9.93;4.63;;;;;;;21.30;15.84;99735.75;5068669;28;20547;-35
2023/03/20 08:42:38;;;;;;;8.55;3.90;;;;;;;21.46;15.70;99734.41;5068538;28;20068;-35
2023/03/20 08:45:05;;;;;;;8.55;3.92;;;;;;;21.23;15.43;99731.88;5098231;28;20067;-34
2023/03/20 08:47:31;;;;;;;8.40;3.80;;;;;;;20.72;15.41;99729.59;5077458;28;20159;-34
2023/03/20 08:49:57;;;;;;;9.50;4.68;;;;;;;20.26;15.83;99722.41;5078193;28;20135;-36
2023/03/20 08:52:23;;;;;;;7.15;3.97;;;;;;;19.93;16.28;99719.59;5074447;28;20040;-36
2023/03/20 08:54:49;;;;;;;9.48;3.88;;;;;;;19.97;16.22;99715.78;5078888;28;20595;-37
2023/03/20 08:57:15;;;;;;;8.98;4.30;;;;;;;19.53;16.59;99715.47;5080743;28;20097;-35
2023/03/20 08:59:41;;;;;;;8.35;4.40;;;;;;;18.25;17.36;99712.78;5050419;28;20039;-35
2023/03/20 09:02:10;;;;;;;11.35;4.15;;;;;;;17.52;17.90;99672.75;5087995;28;20036;-35
2023/03/20 09:04:36;;;;;;;12.10;4.47;;;;;;;18.03;17.75;99713.31;5088104;28;20158;-35
2023/03/20 09:07:02;;;;;;;12.32;4.38;;;;;;;17.98;18.04;99713.63;5085082;28;20122;-34
2023/03/20 09:09:28;;;;;;;7.85;4.50;;;;;;;18.33;17.90;99713.94;5076046;28;20051;-36
2023/03/20 09:11:58;;;;;;;10.00;4.47;;;;;;;18.80;17.64;99684.47;5085410;28;20515;-35
2023/03/20 09:14:25;;;;;;;12.98;4.95;;;;;;;19.58;17.20;99703.63;5077184;28;20756;-37
2023/03/20 09:16:51;;;;;;;9.07;3.95;;;;;;;20.54;16.67;99701.91;5051194;28;20096;-36
2023/03/20 09:19:18;;;;;;;9.27;4.47;;;;;;;21.71;15.71;99708.66;5071897;28;20155;-35
2023/03/20 09:21:45;;;;;;;8.35;3.92;;;;;;;21.74;15.18;99708.41;5083491;28;20123;-35
2023/03/20 09:24:11;;;;;;;8.95;3.55;;;;;;;21.84;14.97;99682.88;5079415;28;20039;-35
2023/03/20 09:26:38;;;;;;;7.10;4.78;;;;;;;21.46;15.42;99670.91;5085042;28;20151;-35
2023/03/20 09:29:04;;;;;;;7.00;4.68;;;;;;;21.64;15.42;99696.88;5082760;28;20067;-35
2023/03/20 09:31:31;;;;;;;9.98;4.93;;;;;;;21.90;15.42;99692.97;5086143;28;20032;-36
2023/03/20 09:33:57;;;;;;;9.43;4.80;;;;;;;22.39;15.07;99696.00;5076390;28;20051;-35
2023/03/20 09:36:22;;;;;;;13.70;5.47;;;;;;;22.87;15.16;99698.19;5070747;28;20044;-36
2023/03/20 09:38:48;;;;;;;8.88;4.93;;;;;;;23.52;14.65;99694.31;5056983;28;20051;-36
2023/03/20 09:41:26;;;;;;;9.48;4.57;;;;;;;23.43;14.53;99682.69;5086546;28;20055;-35
2023/03/20 09:44:01;;;;;;;11.32;4.40;;;;;;;24.13;14.27;99683.56;5084314;28;20035;-36
2023/03/20 09:46:32;;;;;;;11.52;4.90;;;;;;;23.97;14.12;99678.81;5081350;28;20036;-37
2023/03/20 09:49:10;;;;;;;12.20;5.30;;;;;;;23.77;14.18;99669.94;5081075;28;20086;-36
2023/03/20 09:51:45;;;;;;;10.88;4.30;;;;;;;23.73;14.33;99678.31;5074335;28;20070;-35
2023/03/20 09:54:23;;;;;;;8.55;4.70;;;;;;;22.88;14.49;99652.09;5069271;28;20047;-35
2023/03/20 09:56:50;;;;;;;13.35;4.90;;;;;;;23.40;14.47;99650.25;5083859;28;20427;-37
2023/03/20 09:59:17;;;;;;;7.35;4.90;;;;;;;24.31;13.86;99620.78;5081174;28;20685;-37
2023/03/20 10:01:52;;;;;;;15.98;4.65;;;;;;;25.24;13.22;99656.28;5071922;28;20522;-36
2023/03/20 10:04:18;;;;;;;11.70;4.88;;;;;;;26.03;12.97;99663.69;5084060;28;20071;-36
2023/03/20 10:06:45;;;;;;;9.77;4.30;;;;;;;26.25;12.59;99635.78;5074766;28;20040;-35
2023/03/20 10:09:23;;;;;;;10.43;4.88;;;;;;;26.10;12.47;99654.97;5083255;28;20044;-35
2023/03/20 10:12:26;;;;;;;9.50;4.70;;;;;;;26.53;12.20;99650.69;5065701;28;20044;-38
2023/03/20 10:14:52;;;;;;;6.82;4.20;;;;;;;25.74;12.31;99647.94;5070807;28;20181;-35
2023/03/20 10:17:36;;;;;;;8.10;4.22;;;;;;;24.53;12.46;99646.22;5072860;28;20123;-35
2023/03/20 10:20:21;;;;;;;14.32;4.70;;;;;;;24.75;12.31;99636.13;5076965;28;20188;-35
2023/03/20 10:22:58;;;;;;;8.55;4.05;;;;;;;24.92;12.20;99631.88;5086341;28;20028;-34
2023/03/20 10:25:51;;;;;;;8.48;4.03;;;;;;;24.45;12.97;99631.81;5085429;28;20085;-35
2023/03/20 10:28:34;;;;;;;13.13;4.63;;;;;;;24.88;12.22;99631.34;5049735;28;20361;-35
2023/03/20 10:31:02;;;;;;;6.35;4.20;;;;;;;24.05;12.52;99637.28;5066600;28;20048;-36
2023/03/20 10:33:59;;;;;;;8.63;4.38;;;;;;;23.80;12.98;99623.69;5078185;28;20048;-35
2023/03/20 10:36:58;;;;;;;8.63;4.43;;;;;;;24.47;12.38;99626.38;5074693;28;20055;-35
2023/03/20 10:39:48;;;;;;;6.22;3.88;;;;;;;24.85;12.25;99622.78;5064183;28;20055;-34
2023/03/20 10:42:17;;;;;;;7.22;4.47;;;;;;;25.01;11.85;99620.41;5075593;28;20044;-35
2023/03/20 10:44:48;;;;;;;7.47;3.92;;;;;;;26.05;11.33;99619.94;5075939;28;20047;-34
2023/03/20 10:47:17;;;;;;;9.05;5.30;;;;;;;26.22;11.25;99598.75;5085069;28;20532;-34
2023/03/20 10:49:50;;;;;;;9.32;4.50;;;;;;;26.04;10.83;99617.41;5083026;28;20184;-34
2023/03/20 10:52:20;;;;;;;10.63;4.47;;;;;;;26.25;11.10;99604.66;5088314;28;20068;-35
2023/03/20 10:54:47;;;;;;;9.65;4.15;;;;;;;27.17;10.78;99575.53;5073754;28;20051;-34
2023/03/20 10:57:19;;;;;;;7.95;3.83;;;;;;;27.94;10.71;99609.16;5068357;28;20537;-35
2023/03/20 10:59:52;;;;;;;6.53;3.75;;;;;;;27.54;10.16;99614.41;5068164;28;20072;-35
2023/03/20 11:02:20;;;;;;;7.57;3.90;;;;;;;26.92;10.41;99606.63;5081428;28;20093;-34
2023/03/20 11:04:46;;;;;;;;;;;;;;;27.14;10.38;99601.72;5065024;28;20131;-35
2023/03/20 11:07:24;;;;;;;8.05;3.83;;;;;;;26.23;10.65;99603.09;5070696;28;20026;-34
2023/03/20 11:10:03;;;;;;;;;;;;;;;25.54;11.27;99593.91;5071261;28;20051;-34
2023/03/20 11:12:31;;;;;;;;;;;;;;;25.56;11.20;99601.78;5080205;28;20347;-35
2023/03/20 11:14:59;;;;;;;5.47;4.00;;;;;;;25.39;11.30;99591.91;5080255;28;19916;-36
2023/03/20 11:17:28;;;;;;;6.55;4.18;;;;;;;25.87;11.29;99588.94;5082546;28;20040;-37
2023/03/20 11:20:02;;;;;;;10.52;3.90;;;;;;;26.45;10.94;99581.28;5076028;28;20128;-36
2023/03/20 11:22:30;;;;;;;4.75;3.53;;;;;;;27.26;10.92;99571.91;5081071;28;20036;-34
2023/03/20 11:25:00;;;;;;;5.85;3.75;;;;;;;27.65;10.64;99593.56;5083515;28;20039;-35
2023/03/20 11:27:28;;;;;;;9.05;3.55;;;;;;;27.86;10.64;99577.06;5085260;28;20044;-36
2023/03/20 11:29:55;;;;;;;7.40;3.85;;;;;;;28.34;10.50;99586.13;5087499;28;20427;-36
2023/03/20 11:32:31;;;;;;;9.80;4.18;;;;;;;27.91;10.80;99580.09;5069939;28;20071;-36
2023/03/20 11:35:24;;;;;;;5.68;3.53;;;;;;;27.93;10.62;99579.94;5083852;28;20036;-35
2023/03/20 11:37:53;;;;;;;8.13;4.72;;;;;;;27.80;10.70;99567.03;5087156;28;20117;-33
2023/03/20 11:40:25;;;;;;;5.78;3.60;;;;;;;27.36;10.96;99555.75;5063655;28;20035;-35
2023/03/20 11:43:12;;;;;;;9.98;3.63;;;;;;;27.37;11.35;99558.25;5082192;28;20032;-36
2023/03/20 11:46:04;;;;;;;11.27;4.00;;;;;;;25.53;11.95;99554.97;5059577;28;20035;-35
2023/03/20 11:48:40;;;;;;;6.45;3.55;;;;;;;25.03;12.25;99524.44;5071370;28;20044;-34
2023/03/20 11:51:09;;;;;;;5.28;3.15;;;;;;;25.31;12.41;99550.91;5092772;28;20845;-36
2023/03/20 11:53:39;;;;;;;5.30;3.33;;;;;;;25.04;12.51;99534.97;5066391;28;20190;-36
2023/03/20 11:56:14;;;;;;;5.53;3.42;;;;;;;25.36;12.66;99533.66;5080572;28;20050;-34
2023/03/20 11:58:57;;;;;;;6.32;3.22;;;;;;;25.85;12.54;99525.19;5079953;28;20507;-40
2023/03/20 12:01:24;;;;;;;5.45;3.47;;;;;;;25.58;12.61;99530.59;5077435;28;20139;-35